Time;durP1;ratioP1;P1;durP2;ratioP2;P2;SDS_P1;SDS_P2;PMS_P1;PMS_P2;Temp;Humidity;BMP_temperature;BMP_pressure;BME280_temperature;BME280_humidity;BME280_pressure;Samples;Min_cycle;Max_cycle;Signal;HPM_P1;HPM_P2
2021/07/30 00:02:23;;;;;;;;;;;15.80;99.90;;;;;;5034710;28;19912;-74
2021/07/30 00:04:49;;;;;;;;;;;15.80;99.90;;;;;;5053041;28;19920;-73
2021/07/30 00:07:14;;;;;;;;;;;15.80;99.90;;;;;;5034852;28;19983;-73
2021/07/30 00:09:40;;;;;;;;;;;15.80;99.90;;;;;;5053514;28;19993;-73
2021/07/30 00:12:06;;;;;;;;;;;15.90;99.90;;;;;;5031812;28;20368;-74
2021/07/30 00:14:32;;;;;;;;;;;15.80;99.90;;;;;;5044717;28;20436;-73
2021/07/30 00:16:57;;;;;;;;;;;15.80;99.90;;;;;;5047634;28;20007;-74
2021/07/30 00:19:23;;;;;;;;;;;15.80;99.90;;;;;;5029769;28;19944;-74
2021/07/30 00:21:49;;;;;;;;;;;15.70;99.90;;;;;;5032174;28;19912;-73
2021/07/30 00:24:14;;;;;;;;;;;15.70;99.90;;;;;;5044645;28;19920;-73
2021/07/30 00:26:39;;;;;;;;;;;15.80;99.90;;;;;;5031847;28;19917;-73
2021/07/30 00:29:05;;;;;;;;;;;15.70;99.90;;;;;;5029048;28;19913;-73
2021/07/30 00:31:31;;;;;;;;;;;15.80;99.90;;;;;;5032955;28;20537;-73
2021/07/30 00:33:56;;;;;;;;;;;15.70;99.90;;;;;;5028990;28;20253;-74
2021/07/30 00:36:22;;;;;;;;;;;15.80;99.90;;;;;;5045386;28;19924;-74
2021/07/30 00:38:47;;;;;;;;;;;15.70;99.90;;;;;;5029754;28;19920;-75
2021/07/30 00:41:13;;;;;;;;;;;15.70;99.90;;;;;;5040853;28;19958;-75
2021/07/30 00:43:38;;;;;;;;;;;15.70;99.90;;;;;;5027574;28;19913;-73
2021/07/30 00:46:04;;;;;;;;;;;15.70;99.90;;;;;;5025426;28;19913;-74
2021/07/30 00:48:30;;;;;;;;;;;15.70;99.90;;;;;;5029488;28;19913;-73
2021/07/30 00:50:56;;;;;;;;;;;15.70;99.90;;;;;;5029599;28;19920;-73
2021/07/30 00:53:23;;;;;;;;;;;15.70;99.90;;;;;;5043657;28;19917;-73
2021/07/30 00:55:49;;;;;;;;;;;15.70;99.90;;;;;;5042995;28;19921;-74
2021/07/30 00:58:14;;;;;;;;;;;15.70;99.90;;;;;;5046339;28;19913;-73
2021/07/30 01:00:41;;;;;;;;;;;15.70;99.90;;;;;;5028723;28;20003;-73
2021/07/30 01:03:07;;;;;;;;;;;15.70;99.90;;;;;;5038584;28;19927;-75
2021/07/30 01:05:33;;;;;;;;;;;15.70;99.90;;;;;;5045113;28;19979;-73
2021/07/30 01:07:59;;;;;;;;;;;15.60;99.90;;;;;;5046103;28;19980;-74
2021/07/30 01:10:24;;;;;;;;;;;15.70;99.90;;;;;;5066594;28;19924;-74
2021/07/30 01:12:50;;;;;;;;;;;15.60;99.90;;;;;;5069317;28;19925;-74
2021/07/30 01:15:15;;;;;;;;;;;15.60;99.90;;;;;;5071472;28;19940;-72
2021/07/30 01:17:41;;;;;;;;;;;15.60;99.90;;;;;;5056282;28;19929;-77
2021/07/30 01:20:09;;;;;;;;;;;15.60;99.90;;;;;;5049554;28;19917;-78
2021/07/30 01:22:37;;;;;;;;;;;15.50;99.90;;;;;;5057502;28;19920;-75
2021/07/30 01:25:03;;;;;;;;;;;15.60;99.90;;;;;;5050312;28;20399;-73
2021/07/30 01:27:28;;;;;;;;;;;15.60;99.90;;;;;;5056462;28;19913;-74
2021/07/30 01:29:54;;;;;;;;;;;15.60;99.90;;;;;;5026580;28;19955;-73
2021/07/30 01:32:19;;;;;;;;;;;15.50;99.90;;;;;;5047620;28;19920;-74
2021/07/30 01:34:45;;;;;;;;;;;15.50;99.90;;;;;;5053048;28;19912;-74
2021/07/30 01:37:11;;;;;;;;;;;15.50;99.90;;;;;;5035478;28;19917;-74
2021/07/30 01:39:37;;;;;;;;;;;15.50;99.90;;;;;;5025003;28;19913;-73
2021/07/30 01:42:03;;;;;;;;;;;15.50;99.90;;;;;;5026676;28;19913;-74
2021/07/30 01:44:29;;;;;;;;;;;15.40;99.90;;;;;;5044818;28;19983;-73
2021/07/30 01:46:54;;;;;;;;;;;15.50;99.90;;;;;;5046445;28;19913;-73
2021/07/30 01:49:20;;;;;;;;;;;15.50;99.90;;;;;;5049002;28;19913;-74
2021/07/30 01:51:46;;;;;;;;;;;15.50;99.90;;;;;;5034823;28;19913;-73
2021/07/30 01:54:14;;;;;;;;;;;15.40;99.90;;;;;;5045354;28;20414;-74
2021/07/30 01:56:41;;;;;;;;;;;15.50;99.90;;;;;;5050087;28;19916;-74
2021/07/30 01:59:08;;;;;;;;;;;15.50;99.90;;;;;;5049345;28;19967;-73
2021/07/30 02:01:34;;;;;;;;;;;15.60;99.90;;;;;;5045319;28;19939;-74
2021/07/30 02:03:59;;;;;;;;;;;15.60;99.90;;;;;;5047048;28;19913;-73
2021/07/30 02:06:25;;;;;;;;;;;15.60;99.90;;;;;;5031627;28;19978;-74
2021/07/30 02:08:50;;;;;;;;;;;15.60;99.90;;;;;;5032922;28;19921;-73
2021/07/30 02:11:16;;;;;;;;;;;15.60;99.90;;;;;;5034570;28;20452;-74
2021/07/30 02:16:26;;;;;;;;;;;15.50;99.90;;;;;;5052696;28;19974;-74
2021/07/30 02:18:51;;;;;;;;;;;15.50;99.90;;;;;;5032099;28;21750;-74
2021/07/30 02:21:17;;;;;;;;;;;15.50;99.90;;;;;;5047661;28;19920;-76
2021/07/30 02:23:43;;;;;;;;;;;15.40;99.90;;;;;;5032593;28;19917;-74
2021/07/30 02:26:09;;;;;;;;;;;15.40;99.90;;;;;;5048743;28;20254;-74
2021/07/30 02:28:34;;;;;;;;;;;15.40;99.90;;;;;;5037807;28;19971;-76
2021/07/30 02:31:00;;;;;;;;;;;15.40;99.90;;;;;;5030870;28;19920;-75
2021/07/30 02:33:25;;;;;;;;;;;15.40;99.90;;;;;;5052954;28;19960;-76
2021/07/30 02:35:51;;;;;;;;;;;15.40;99.90;;;;;;5026726;28;20330;-74
2021/07/30 02:41:00;;;;;;;;;;;15.40;99.90;;;;;;5044920;28;19974;-74
2021/07/30 02:43:26;;;;;;;;;;;15.30;99.90;;;;;;5035745;28;19925;-74
2021/07/30 02:45:51;;;;;;;;;;;15.30;99.90;;;;;;5051518;28;19921;-74
2021/07/30 02:48:17;;;;;;;;;;;15.30;99.90;;;;;;5035661;28;19947;-74
2021/07/30 02:50:42;;;;;;;;;;;15.20;99.90;;;;;;5045824;28;20063;-74
2021/07/30 02:53:08;;;;;;;;;;;15.20;99.90;;;;;;5048252;28;19921;-74
2021/07/30 02:55:33;;;;;;;;;;;15.10;99.90;;;;;;5044289;28;19913;-75
2021/07/30 02:57:59;;;;;;;;;;;15.20;99.90;;;;;;5025447;28;20427;-75
2021/07/30 03:00:24;;;;;;;;;;;15.20;99.90;;;;;;5035977;28;20000;-75
2021/07/30 03:02:50;;;;;;;;;;;15.20;99.90;;;;;;5050591;28;19995;-74
2021/07/30 03:05:15;;;;;;;;;;;15.20;99.90;;;;;;5030643;28;20336;-75
2021/07/30 03:07:41;;;;;;;;;;;15.10;99.90;;;;;;5046905;28;19923;-75
2021/07/30 03:10:06;;;;;;;;;;;15.10;99.90;;;;;;5030590;28;19947;-74
2021/07/30 03:12:32;;;;;;;;;;;15.10;99.90;;;;;;5035399;28;19921;-74
2021/07/30 03:14:57;;;;;;;;;;;15.00;99.90;;;;;;5024567;28;19924;-74
2021/07/30 03:17:23;;;;;;;;;;;15.10;99.90;;;;;;5047969;28;19924;-75
2021/07/30 03:19:48;;;;;;;;;;;15.00;99.90;;;;;;5048640;28;19917;-74
2021/07/30 03:22:14;;;;;;;;;;;15.00;99.90;;;;;;5033729;28;19913;-74
2021/07/30 03:24:39;;;;;;;;;;;15.00;99.90;;;;;;5051187;28;19913;-73
2021/07/30 03:27:05;;;;;;;;;;;15.10;99.90;;;;;;5052693;28;19913;-74
2021/07/30 03:29:30;;;;;;;;;;;15.10;99.90;;;;;;5027196;28;19964;-73
2021/07/30 03:31:56;;;;;;;;;;;15.10;99.90;;;;;;5029071;28;19920;-73
2021/07/30 03:34:21;;;;;;;;;;;15.00;99.90;;;;;;5035050;28;19912;-74
2021/07/30 03:36:47;;;;;;;;;;;15.00;99.90;;;;;;5054808;28;19956;-74
2021/07/30 03:39:12;;;;;;;;;;;15.00;99.90;;;;;;5036590;28;19913;-73
2021/07/30 03:41:38;;;;;;;;;;;15.00;99.90;;;;;;5038877;28;19916;-73
2021/07/30 03:44:04;;;;;;;;;;;15.10;99.90;;;;;;5036794;28;19912;-73
2021/07/30 03:46:29;;;;;;;;;;;15.10;99.90;;;;;;5054926;28;20309;-74
2021/07/30 03:48:55;;;;;;;;;;;15.00;99.90;;;;;;5054761;28;20015;-75
2021/07/30 03:51:20;;;;;;;;;;;15.00;99.90;;;;;;5054739;28;19913;-74
2021/07/30 03:53:46;;;;;;;;;;;15.00;99.90;;;;;;5054597;28;20007;-73
2021/07/30 03:56:12;;;;;;;;;;;15.10;99.90;;;;;;5054644;28;19917;-74
2021/07/30 03:58:38;;;;;;;;;;;15.10;99.90;;;;;;5037219;28;19982;-73
2021/07/30 04:01:08;;;;;;;;;;;15.10;99.90;;;;;;5054444;28;19917;-74
2021/07/30 04:03:33;;;;;;;;;;;15.10;99.90;;;;;;5036035;28;20336;-74
2021/07/30 04:06:00;;;;;;;;;;;15.10;99.90;;;;;;5054515;28;19932;-73
2021/07/30 04:08:26;;;;;;;;;;;15.10;99.90;;;;;;5035084;28;19963;-73
2021/07/30 04:10:51;;;;;;;;;;;15.10;99.90;;;;;;5054804;28;19917;-73
2021/07/30 04:13:17;;;;;;;;;;;15.10;99.90;;;;;;5042514;28;20332;-73
2021/07/30 04:15:42;;;;;;;;;;;15.10;99.90;;;;;;5031958;28;19921;-73
2021/07/30 04:18:07;;;;;;;;;;;15.20;99.90;;;;;;5026805;28;20000;-73
2021/07/30 04:20:33;;;;;;;;;;;15.20;99.90;;;;;;5032388;28;20288;-74
2021/07/30 04:22:58;;;;;;;;;;;15.20;99.90;;;;;;5033046;28;19917;-73
2021/07/30 04:25:24;;;;;;;;;;;15.20;99.90;;;;;;5022560;28;19913;-74
2021/07/30 04:27:49;;;;;;;;;;;15.20;99.90;;;;;;5028106;28;19936;-73
2021/07/30 04:30:15;;;;;;;;;;;15.30;99.90;;;;;;5032495;28;20003;-74
2021/07/30 04:32:40;;;;;;;;;;;15.30;99.90;;;;;;5034509;28;19932;-73
2021/07/30 04:35:06;;;;;;;;;;;15.30;99.90;;;;;;5020268;28;19917;-73
2021/07/30 04:37:32;;;;;;;;;;;15.30;99.90;;;;;;5026144;28;20024;-74
2021/07/30 04:39:59;;;;;;;;;;;15.30;99.90;;;;;;5033675;28;19913;-74
2021/07/30 04:42:27;;;;;;;;;;;15.30;99.90;;;;;;5033194;28;19913;-73
2021/07/30 04:44:52;;;;;;;;;;;15.40;99.90;;;;;;5033065;28;19916;-73
2021/07/30 04:47:17;;;;;;;;;;;15.40;99.90;;;;;;5032734;28;20288;-73
2021/07/30 04:49:43;;;;;;;;;;;15.40;99.90;;;;;;5033961;28;19921;-74
2021/07/30 04:52:08;;;;;;;;;;;15.40;99.90;;;;;;5033987;28;20015;-74
2021/07/30 04:54:34;;;;;;;;;;;15.40;99.90;;;;;;5032915;28;19913;-74
2021/07/30 04:56:59;;;;;;;;;;;15.50;99.90;;;;;;5033729;28;19968;-74
2021/07/30 04:59:25;;;;;;;;;;;15.60;99.90;;;;;;5030152;28;20008;-75
2021/07/30 05:01:50;;;;;;;;;;;15.60;99.90;;;;;;5022217;28;19932;-74
2021/07/30 05:04:18;;;;;;;;;;;15.60;99.90;;;;;;5022351;28;19920;-74
2021/07/30 05:06:43;;;;;;;;;;;15.70;99.90;;;;;;5026187;28;19913;-75
2021/07/30 05:09:09;;;;;;;;;;;15.70;99.90;;;;;;5019417;28;19936;-73
2021/07/30 05:11:34;;;;;;;;;;;15.80;99.90;;;;;;5021679;28;20048;-75
2021/07/30 05:14:00;;;;;;;;;;;15.80;99.90;;;;;;5025453;28;20356;-75
2021/07/30 05:16:25;;;;;;;;;;;15.90;99.90;;;;;;5023031;28;19929;-73
2021/07/30 05:18:51;;;;;;;;;;;15.90;99.90;;;;;;5029874;28;19987;-74
2021/07/30 05:21:19;;;;;;;;;;;16.00;99.90;;;;;;5037730;28;19936;-74
2021/07/30 05:23:45;;;;;;;;;;;16.00;99.90;;;;;;5032042;28;19920;-74
2021/07/30 05:26:10;;;;;;;;;;;16.10;99.90;;;;;;5031741;28;19917;-74
2021/07/30 05:28:36;;;;;;;;;;;16.20;99.90;;;;;;5031180;28;20293;-74
2021/07/30 05:31:02;;;;;;;;;;;16.20;99.90;;;;;;5029946;28;19952;-76
2021/07/30 05:33:27;;;;;;;;;;;16.30;99.90;;;;;;5029054;28;19929;-74
2021/07/30 05:35:54;;;;;;;;;;;16.30;99.90;;;;;;5029884;28;19963;-74
2021/07/30 05:38:19;;;;;;;;;;;16.30;99.90;;;;;;5035736;28;20392;-73
2021/07/30 05:40:45;;;;;;;;;;;16.30;99.90;;;;;;5033746;28;19913;-74
2021/07/30 05:43:10;;;;;;;;;;;16.30;99.90;;;;;;5035786;28;20404;-74
2021/07/30 05:45:36;;;;;;;;;;;16.30;99.90;;;;;;5037167;28;20315;-74
2021/07/30 05:48:02;;;;;;;;;;;16.40;99.90;;;;;;5035406;28;19914;-74
2021/07/30 05:50:27;;;;;;;;;;;16.40;99.90;;;;;;5036369;28;19919;-73
2021/07/30 05:52:52;;;;;;;;;;;16.50;99.90;;;;;;5028053;28;19967;-74
2021/07/30 05:55:18;;;;;;;;;;;16.50;99.90;;;;;;5035401;28;19913;-74
2021/07/30 05:57:44;;;;;;;;;;;16.60;99.90;;;;;;5048782;28;19932;-74
2021/07/30 06:00:10;;;;;;;;;;;16.70;99.90;;;;;;5036223;28;19913;-74
2021/07/30 06:02:35;;;;;;;;;;;16.80;99.90;;;;;;5034294;28;20371;-74
2021/07/30 06:05:01;;;;;;;;;;;17.00;99.90;;;;;;5034155;28;19917;-73
2021/07/30 06:07:26;;;;;;;;;;;17.10;99.90;;;;;;5033432;28;20000;-75
2021/07/30 06:09:52;;;;;;;;;;;17.20;99.90;;;;;;5036514;28;19952;-75
2021/07/30 06:12:17;;;;;;;;;;;17.50;99.90;;;;;;5032164;28;20479;-72
2021/07/30 06:14:44;;;;;;;;;;;17.70;99.90;;;;;;5038814;28;19963;-74
2021/07/30 06:17:10;;;;;;;;;;;17.90;99.90;;;;;;5048722;28;19925;-75
2021/07/30 06:19:35;;;;;;;;;;;17.90;99.90;;;;;;5032909;28;20376;-74
2021/07/30 06:22:01;;;;;;;;;;;17.90;99.90;;;;;;5036867;28;19964;-73
2021/07/30 06:24:26;;;;;;;;;;;17.90;99.90;;;;;;5050662;28;20289;-73
2021/07/30 06:26:52;;;;;;;;;;;18.10;99.90;;;;;;5035658;28;20070;-74
2021/07/30 06:29:17;;;;;;;;;;;18.20;99.90;;;;;;5054077;28;19913;-76
2021/07/30 06:31:43;;;;;;;;;;;18.30;99.90;;;;;;5045543;28;20312;-74
2021/07/30 06:34:09;;;;;;;;;;;18.30;99.90;;;;;;5055271;28;19912;-74
2021/07/30 06:36:34;;;;;;;;;;;18.40;99.90;;;;;;5036247;28;20357;-72
2021/07/30 06:39:00;;;;;;;;;;;18.40;99.90;;;;;;5036688;28;19913;-73
2021/07/30 06:41:25;;;;;;;;;;;18.50;99.90;;;;;;5036422;28;19960;-72
2021/07/30 06:43:51;;;;;;;;;;;18.50;99.90;;;;;;5035499;28;20016;-74
2021/07/30 06:46:16;;;;;;;;;;;18.50;99.90;;;;;;5050762;28;19921;-75
2021/07/30 06:48:42;;;;;;;;;;;18.50;99.90;;;;;;5052621;28;19928;-76
2021/07/30 06:51:14;;;;;;;;;;;18.50;99.90;;;;;;5047137;28;19913;-74
2021/07/30 06:53:40;;;;;;;;;;;18.50;99.90;;;;;;5026960;28;19916;-74
2021/07/30 06:56:12;;;;;;;;;;;18.60;99.90;;;;;;5032704;28;20272;-73
2021/07/30 06:58:37;;;;;;;;;;;18.70;99.90;;;;;;5047115;28;20451;-77
2021/07/30 07:01:03;;;;;;;;;;;18.70;99.90;;;;;;5026541;28;19921;-76
2021/07/30 07:03:29;;;;;;;;;;;18.80;99.90;;;;;;5030409;28;19917;-73
2021/07/30 07:05:54;;;;;;;;;;;18.90;99.90;;;;;;5047270;28;19958;-75
2021/07/30 07:08:20;;;;;;;;;;;18.90;99.90;;;;;;5055849;28;19909;-74
2021/07/30 07:10:45;;;;;;;;;;;19.00;99.90;;;;;;5052309;28;19967;-75
2021/07/30 07:13:11;;;;;;;;;;;19.10;99.90;;;;;;5034752;28;20285;-75
2021/07/30 07:15:41;;;;;;;;;;;19.40;99.90;;;;;;5054823;28;19960;-73
2021/07/30 07:18:07;;;;;;;;;;;19.60;99.90;;;;;;5054247;28;20400;-74
2021/07/30 07:20:32;;;;;;;;;;;20.00;99.90;;;;;;5034659;28;19913;-73
2021/07/30 07:22:58;;;;;;;;;;;20.10;99.90;;;;;;5054439;28;20012;-74
2021/07/30 07:25:24;;;;;;;;;;;20.20;99.90;;;;;;5047969;28;19920;-75
2021/07/30 07:27:49;;;;;;;;;;;20.10;99.90;;;;;;5035707;28;20008;-73
2021/07/30 07:30:14;;;;;;;;;;;20.10;99.90;;;;;;5042175;28;19960;-73
2021/07/30 07:32:40;;;;;;;;;;;20.10;99.90;;;;;;5037341;28;19919;-73
2021/07/30 07:35:06;;;;;;;;;;;20.10;99.90;;;;;;5036935;28;19995;-73
2021/07/30 07:37:31;;;;;;;;;;;19.90;99.90;;;;;;5055355;28;20430;-74
2021/07/30 07:39:57;;;;;;;;;;;19.90;99.90;;;;;;5053250;28;19920;-73
2021/07/30 07:42:22;;;;;;;;;;;19.80;99.90;;;;;;5055393;28;19965;-73
2021/07/30 07:44:51;;;;;;;;;;;19.80;99.90;;;;;;5036137;28;19920;-74
2021/07/30 07:47:17;;;;;;;;;;;19.70;99.90;;;;;;5054706;28;19920;-73
2021/07/30 07:49:42;;;;;;;;;;;19.80;99.90;;;;;;5054546;28;20304;-73
2021/07/30 07:52:08;;;;;;;;;;;19.80;99.90;;;;;;5054913;28;19913;-73
2021/07/30 07:54:33;;;;;;;;;;;19.90;99.90;;;;;;5054884;28;20292;-72
2021/07/30 07:57:02;;;;;;;;;;;20.10;99.90;;;;;;5052817;28;19917;-72
2021/07/30 07:59:32;;;;;;;;;;;20.20;99.90;;;;;;5050143;28;19920;-73
2021/07/30 08:01:58;;;;;;;;;;;20.40;99.90;;;;;;5054297;28;19913;-74
2021/07/30 08:04:23;;;;;;;;;;;20.60;99.90;;;;;;5053319;28;19913;-74
2021/07/30 08:06:49;;;;;;;;;;;20.90;99.90;;;;;;5050124;28;19919;-74
2021/07/30 08:09:14;;;;;;;;;;;21.30;99.90;;;;;;5023975;28;20363;-73
2021/07/30 08:11:40;;;;;;;;;;;21.50;99.90;;;;;;5016537;28;19912;-73
2021/07/30 08:14:05;;;;;;;;;;;21.50;99.90;;;;;;5017254;28;19921;-73
2021/07/30 08:16:31;;;;;;;;;;;21.60;99.90;;;;;;5033875;28;19967;-74
2021/07/30 08:18:56;;;;;;;;;;;21.90;99.90;;;;;;5034071;28;19914;-73
2021/07/30 08:21:22;;;;;;;;;;;22.10;99.90;;;;;;5044506;28;20059;-75
2021/07/30 08:23:48;;;;;;;;;;;22.30;99.90;;;;;;5043596;28;20277;-73
2021/07/30 08:26:13;;;;;;;;;;;22.30;99.90;;;;;;5022562;28;19913;-73
2021/07/30 08:28:39;;;;;;;;;;;22.40;99.90;;;;;;5053139;28;19965;-75
2021/07/30 08:31:04;;;;;;;;;;;22.60;99.90;;;;;;5050760;28;20003;-73
2021/07/30 08:33:30;;;;;;;;;;;22.80;99.90;;;;;;5049799;28;19920;-73
2021/07/30 08:35:55;;;;;;;;;;;23.00;99.90;;;;;;5026573;28;19913;-73
2021/07/30 08:38:21;;;;;;;;;;;23.20;99.90;;;;;;5036130;28;19923;-73
2021/07/30 08:40:46;;;;;;;;;;;23.50;99.90;;;;;;5049569;28;20014;-73
2021/07/30 08:43:15;;;;;;;;;;;23.70;99.90;;;;;;5053027;28;20356;-73
2021/07/30 08:45:47;;;;;;;;;;;23.90;99.90;;;;;;5052771;28;20407;-74
2021/07/30 08:48:13;;;;;;;;;;;23.90;99.90;;;;;;5035361;28;19952;-73
2021/07/30 08:50:39;;;;;;;;;;;23.60;99.90;;;;;;5035361;28;19952;-73
2021/07/30 08:53:05;;;;;;;;;;;23.50;99.90;;;;;;5035987;28;20273;-76
2021/07/30 08:55:31;;;;;;;;;;;23.40;99.90;;;;;;5049939;28;19917;-75
2021/07/30 08:57:56;;;;;;;;;;;23.40;99.90;;;;;;5054119;28;19951;-75
2021/07/30 09:00:22;;;;;;;;;;;23.40;99.90;;;;;;5048189;28;19913;-75
2021/07/30 09:02:47;;;;;;;;;;;23.70;99.90;;;;;;5027400;28;19912;-76
2021/07/30 09:05:32;;;;;;;;;;;24.00;99.90;;;;;;5037293;28;19912;-76
2021/07/30 09:07:59;;;;;;;;;;;23.90;99.90;;;;;;5049896;28;19912;-75
2021/07/30 09:10:25;;;;;;;;;;;23.60;99.90;;;;;;5036220;28;19913;-77
2021/07/30 09:12:51;;;;;;;;;;;23.50;99.90;;;;;;5042251;28;19924;-75
2021/07/30 09:15:20;;;;;;;;;;;23.50;99.90;;;;;;5026414;28;20380;-74
2021/07/30 09:17:45;;;;;;;;;;;23.50;99.90;;;;;;5034440;28;20352;-75
2021/07/30 09:20:11;;;;;;;;;;;23.30;99.90;;;;;;5045348;28;20015;-74
2021/07/30 09:22:49;;;;;;;;;;;23.30;99.90;;;;;;5052371;28;19913;-73
2021/07/30 09:25:31;;;;;;;;;;;23.10;99.90;;;;;;5030383;28;19920;-75
2021/07/30 09:28:06;;;;;;;;;;;23.10;99.90;;;;;;5033166;28;19959;-75
2021/07/30 09:30:32;;;;;;;;;;;22.90;99.90;;;;;;5032613;28;19913;-74
2021/07/30 09:32:58;;;;;;;;;;;22.90;99.90;;;;;;5032945;28;19921;-75
2021/07/30 09:35:23;;;;;;;;;;;22.80;99.90;;;;;;5051574;28;19957;-74
2021/07/30 09:38:08;;;;;;;;;;;22.70;99.90;;;;;;5026826;28;19983;-74
2021/07/30 09:40:33;;;;;;;;;;;22.60;99.90;;;;;;5035910;28;19912;-76
2021/07/30 09:43:18;;;;;;;;;;;22.70;99.90;;;;;;5035531;28;19924;-73
2021/07/30 09:45:44;;;;;;;;;;;23.10;99.90;;;;;;5051858;28;19912;-75
2021/07/30 09:48:09;;;;;;;;;;;23.60;99.90;;;;;;5047552;28;19920;-75
2021/07/30 09:50:35;;;;;;;;;;;24.00;99.90;;;;;;5035511;28;19913;-75
2021/07/30 09:53:01;;;;;;;;;;;24.20;99.90;;;;;;5034559;28;20011;-74
2021/07/30 09:55:27;;;;;;;;;;;24.30;99.90;;;;;;5033178;28;19921;-75
2021/07/30 09:57:53;;;;;;;;;;;24.30;99.90;;;;;;5038763;28;19963;-74
2021/07/30 10:00:20;;;;;;;;;;;24.40;99.90;;;;;;5034432;28;20329;-76
2021/07/30 10:02:46;;;;;;;;;;;24.40;99.90;;;;;;5035370;28;19975;-74
2021/07/30 10:05:15;;;;;;;;;;;24.30;99.90;;;;;;5035329;28;19956;-75
2021/07/30 10:07:41;;;;;;;;;;;24.20;99.90;;;;;;5033034;28;20357;-75
2021/07/30 10:10:17;;;;;;;;;;;24.20;99.90;;;;;;5050962;28;19913;-77
2021/07/30 10:12:52;;;;;;;;;;;23.90;99.90;;;;;;5043570;28;19985;-74
2021/07/30 10:15:18;;;;;;;;;;;23.80;99.90;;;;;;5032523;28;19921;-75
2021/07/30 10:17:47;;;;;;;;;;;23.70;99.90;;;;;;5050930;28;19979;-75
2021/07/30 10:20:14;;;;;;;;;;;23.60;99.90;;;;;;5032786;28;19913;-75
2021/07/30 10:22:46;;;;;;;;;;;23.60;99.90;;;;;;5051613;28;19920;-75
2021/07/30 10:25:16;;;;;;;;;;;23.60;99.90;;;;;;5056401;28;19917;-75
2021/07/30 10:27:42;;;;;;;;;;;23.50;99.90;;;;;;5053444;28;19916;-76
2021/07/30 10:30:15;;;;;;;;;;;23.50;99.90;;;;;;5055338;28;20008;-74
2021/07/30 10:32:48;;;;;;;;;;;23.40;99.90;;;;;;5035526;28;20421;-74
2021/07/30 10:35:14;;;;;;;;;;;23.40;99.90;;;;;;5054805;28;19913;-75
2021/07/30 10:37:45;;;;;;;;;;;23.40;99.90;;;;;;5050859;28;19955;-72
2021/07/30 10:40:15;;;;;;;;;;;23.50;99.90;;;;;;5054925;28;19913;-74
2021/07/30 10:42:59;;;;;;;;;;;23.50;99.90;;;;;;5051546;28;19913;-73
2021/07/30 10:45:25;;;;;;;;;;;23.50;99.90;;;;;;5038363;28;19956;-74
2021/07/30 10:48:10;;;;;;;;;;;23.50;99.90;;;;;;5039877;28;19940;-75
2021/07/30 10:50:55;;;;;;;;;;;23.30;99.90;;;;;;5040727;28;19920;-75
2021/07/30 10:53:33;;;;;;;;;;;23.30;99.90;;;;;;5032341;28;19924;-74
2021/07/30 10:56:02;;;;;;;;;;;23.20;99.90;;;;;;5037623;28;19913;-73
2021/07/30 10:58:39;;;;;;;;;;;23.00;99.90;;;;;;5031098;28;19912;-74
2021/07/30 11:01:07;;;;;;;;;;;22.90;99.90;;;;;;5042679;28;19943;-74
2021/07/30 11:03:51;;;;;;;;;;;22.90;99.90;;;;;;5033797;28;19912;-74
2021/07/30 11:06:17;;;;;;;;;;;23.00;99.90;;;;;;5052222;28;19936;-75
2021/07/30 11:11:35;;;;;;;;;;;22.90;99.90;;;;;;5062891;28;19913;-71
2021/07/30 11:14:01;;;;;;;;;;;22.90;99.90;;;;;;5038350;28;19924;-73
2021/07/30 11:16:26;;;;;;;;;;;22.90;99.90;;;;;;5028479;28;20361;-73
2021/07/30 11:18:52;;;;;;;;;;;22.90;99.90;;;;;;5035702;28;20430;-73
2021/07/30 11:21:17;;;;;;;;;;;22.70;99.90;;;;;;5031360;28;19913;-73
2021/07/30 11:23:43;;;;;;;;;;;22.70;99.90;;;;;;5033456;28;19913;-71
2021/07/30 11:26:09;;;;;;;;;;;22.70;99.90;;;;;;5035069;28;19913;-72
2021/07/30 11:28:34;;;;;;;;;;;22.90;99.90;;;;;;5028054;28;20315;-73
2021/07/30 11:31:00;;;;;;;;;;;22.90;99.90;;;;;;5029142;28;19921;-73
2021/07/30 11:33:25;;;;;;;;;;;22.90;99.90;;;;;;5031834;28;19977;-72
2021/07/30 11:35:51;;;;;;;;;;;22.80;99.90;;;;;;5035256;28;19917;-73
2021/07/30 11:38:16;;;;;;;;;;;22.70;99.90;;;;;;5031921;28;19931;-72
2021/07/30 11:40:42;;;;;;;;;;;22.70;99.90;;;;;;5033008;28;20283;-72
2021/07/30 11:43:08;;;;;;;;;;;22.80;99.90;;;;;;5029644;28;19913;-72
2021/07/30 11:45:34;;;;;;;;;;;22.90;99.90;;;;;;5030472;28;19913;-72
2021/07/30 11:47:59;;;;;;;;;;;23.00;99.90;;;;;;5034131;28;20415;-72
2021/07/30 11:50:26;;;;;;;;;;;23.00;99.90;;;;;;5028562;28;19914;-72
2021/07/30 11:52:51;;;;;;;;;;;23.00;99.90;;;;;;5026391;28;19917;-73
2021/07/30 11:55:18;;;;;;;;;;;23.00;99.90;;;;;;5029022;28;19913;-73
2021/07/30 11:57:45;;;;;;;;;;;23.00;99.90;;;;;;5030341;28;21280;-72
2021/07/30 12:00:10;;;;;;;;;;;23.00;99.90;;;;;;5030726;28;19913;-71
2021/07/30 12:02:36;;;;;;;;;;;23.00;99.90;;;;;;5029454;28;20425;-72
2021/07/30 12:05:02;;;;;;;;;;;22.90;99.90;;;;;;5032586;28;20024;-72
2021/07/30 12:07:30;;;;;;;;;;;22.80;99.90;;;;;;5033207;28;19956;-72
2021/07/30 12:09:58;;;;;;;;;;;22.70;99.90;;;;;;5028165;28;19956;-72
2021/07/30 12:12:25;;;;;;;;;;;22.60;99.90;;;;;;5027245;28;19913;-71
2021/07/30 12:14:52;;;;;;;;;;;22.50;99.90;;;;;;5027679;28;20392;-71
2021/07/30 12:17:18;;;;;;;;;;;22.50;99.90;;;;;;5027500;28;19948;-71
2021/07/30 12:19:54;;;;;;;;;;;22.40;99.90;;;;;;5047358;28;19966;-72
2021/07/30 12:22:31;;;;;;;;;;;22.40;99.90;;;;;;5052831;28;19967;-71
2021/07/30 12:24:57;;;;;;;;;;;22.40;99.90;;;;;;5052301;28;19912;-71
2021/07/30 12:27:22;;;;;;;;;;;22.40;99.90;;;;;;5033464;28;19959;-72
2021/07/30 12:29:48;;;;;;;;;;;22.30;99.90;;;;;;5050163;28;20384;-70
2021/07/30 12:32:17;;;;;;;;;;;22.20;99.90;;;;;;5052580;28;20003;-71
2021/07/30 12:34:59;;;;;;;;;;;22.20;99.90;;;;;;5036326;28;19913;-72
2021/07/30 12:37:26;;;;;;;;;;;22.20;99.90;;;;;;5046074;28;19963;-71
2021/07/30 12:39:52;;;;;;;;;;;22.20;99.90;;;;;;5048110;28;19919;-71
2021/07/30 12:42:38;;;;;;;;;;;22.20;99.90;;;;;;5050351;28;19917;-70
2021/07/30 12:45:08;;;;;;;;;;;22.30;99.90;;;;;;5051094;28;20003;-71
2021/07/30 12:47:39;;;;;;;;;;;22.30;99.90;;;;;;5032567;28;19959;-72
2021/07/30 12:50:23;;;;;;;;;;;22.40;99.90;;;;;;5032766;28;19958;-71
2021/07/30 12:53:09;;;;;;;;;;;22.60;99.90;;;;;;5049471;28;19913;-71
2021/07/30 12:55:55;;;;;;;;;;;22.80;99.90;;;;;;5051050;28;19919;-71
2021/07/30 12:58:22;;;;;;;;;;;23.00;99.90;;;;;;5053033;28;19999;-71
2021/07/30 13:00:50;;;;;;;;;;;23.00;99.90;;;;;;5053869;28;19912;-70
2021/07/30 13:03:16;;;;;;;;;;;23.00;99.90;;;;;;5035544;28;20356;-70
2021/07/30 13:05:45;;;;;;;;;;;22.90;99.90;;;;;;5034999;28;19959;-71
2021/07/30 13:08:11;;;;;;;;;;;22.90;99.90;;;;;;5051027;28;19921;-70
2021/07/30 13:10:36;;;;;;;;;;;22.90;99.90;;;;;;5034032;28;20325;-71
2021/07/30 13:13:02;;;;;;;;;;;23.00;99.90;;;;;;5052236;28;19913;-71
2021/07/30 13:15:28;;;;;;;;;;;23.00;99.90;;;;;;5047327;28;19924;-71
2021/07/30 13:20:38;;;;;;;;;;;22.80;99.90;;;;;;5050765;28;19920;-72
2021/07/30 13:23:04;;;;;;;;;;;22.60;99.90;;;;;;5053474;28;20356;-71
2021/07/30 13:25:29;;;;;;;;;;;22.50;99.90;;;;;;5049002;28;19913;-71
2021/07/30 13:27:54;;;;;;;;;;;22.40;99.90;;;;;;5035688;28;20427;-71
2021/07/30 13:30:20;;;;;;;;;;;22.20;99.90;;;;;;5033274;28;19923;-71
2021/07/30 13:32:47;;;;;;;;;;;21.90;99.90;;;;;;5034685;28;20391;-71
2021/07/30 13:35:14;;;;;;;;;;;21.50;99.90;;;;;;5050629;28;19920;-71
2021/07/30 13:37:39;;;;;;;;;;;21.30;99.90;;;;;;5052411;28;19962;-72
2021/07/30 13:40:05;;;;;;;;;;;21.00;99.90;;;;;;5044963;28;19916;-71
2021/07/30 13:42:30;;;;;;;;;;;20.60;99.90;;;;;;5051615;28;20288;-71
2021/07/30 13:44:56;;;;;;;;;;;20.10;99.90;;;;;;5046229;28;19966;-72
2021/07/30 13:47:22;;;;;;;;;;;19.70;99.90;;;;;;5048427;28;19967;-70
2021/07/30 13:49:47;;;;;;;;;;;19.40;99.90;;;;;;5033121;28;19967;-71
2021/07/30 13:52:13;;;;;;;;;;;19.20;99.90;;;;;;5051434;28;20332;-72
2021/07/30 13:54:41;;;;;;;;;;;19.00;99.90;;;;;;5043064;28;19913;-72
2021/07/30 13:57:08;;;;;;;;;;;18.70;99.90;;;;;;5033028;28;20265;-71
2021/07/30 13:59:37;;;;;;;;;;;18.50;99.90;;;;;;5037533;28;20288;-71
2021/07/30 14:02:04;;;;;;;;;;;18.40;99.90;;;;;;5055051;28;20319;-71
2021/07/30 14:04:36;;;;;;;;;;;18.30;99.90;;;;;;5051232;28;20372;-71
2021/07/30 14:07:05;;;;;;;;;;;18.40;99.90;;;;;;5051969;28;19913;-71
2021/07/30 14:09:35;;;;;;;;;;;18.50;99.90;;;;;;5054749;28;20007;-72
2021/07/30 14:12:01;;;;;;;;;;;18.80;99.90;;;;;;5052689;28;19920;-72
2021/07/30 14:14:26;;;;;;;;;;;19.20;99.90;;;;;;5051712;28;20007;-71
2021/07/30 14:16:52;;;;;;;;;;;19.50;99.90;;;;;;5053829;28;20004;-72
2021/07/30 14:19:18;;;;;;;;;;;19.70;99.90;;;;;;5046321;28;20358;-71
2021/07/30 14:21:44;;;;;;;;;;;19.90;99.90;;;;;;5056006;28;19913;-72
2021/07/30 14:24:09;;;;;;;;;;;20.10;99.90;;;;;;5037708;28;19935;-72
2021/07/30 14:26:35;;;;;;;;;;;20.20;99.90;;;;;;5055436;28;19920;-73